createdAt,value
2017-01-28T00:00:11.521Z,0
2017-01-28T00:01:12.201Z,0
2017-01-28T00:02:12.908Z,0
2017-01-28T00:03:13.639Z,0
2017-01-28T00:04:14.374Z,0
2017-01-28T00:05:15.081Z,0
2017-01-28T00:06:15.763Z,0
2017-01-28T00:07:16.433Z,0
2017-01-28T00:08:17.118Z,0
2017-01-28T00:09:17.820Z,0
2017-01-28T00:10:18.470Z,0
2017-01-28T00:11:19.152Z,0
2017-01-28T00:12:19.819Z,0
2017-01-28T00:13:20.491Z,0
2017-01-28T00:14:21.190Z,0
2017-01-28T00:15:21.867Z,0
2017-01-28T00:16:22.538Z,0
2017-01-28T00:17:23.216Z,0
2017-01-28T00:18:23.890Z,0
2017-01-28T00:19:24.567Z,0
2017-01-28T00:20:25.232Z,0
2017-01-28T00:21:25.913Z,0
2017-01-28T00:22:26.577Z,0
2017-01-28T00:23:27.252Z,0
2017-01-28T00:24:27.920Z,0
2017-01-28T00:25:28.620Z,0
2017-01-28T00:26:29.323Z,0
2017-01-28T00:27:30.005Z,0
2017-01-28T00:28:30.682Z,0
2017-01-28T00:29:31.365Z,0
2017-01-28T00:30:32.034Z,0
2017-01-28T00:31:32.719Z,0
2017-01-28T00:32:33.403Z,0
2017-01-28T00:33:34.113Z,0
2017-01-28T00:34:34.798Z,0
2017-01-28T00:35:35.474Z,0
2017-01-28T00:36:36.152Z,0
2017-01-28T00:37:36.843Z,0
2017-01-28T00:38:37.536Z,0
2017-01-28T00:39:38.212Z,0
2017-01-28T00:40:38.886Z,0
2017-01-28T00:41:39.567Z,0
2017-01-28T00:42:40.262Z,0
2017-01-28T00:43:40.955Z,0
2017-01-28T00:44:41.657Z,0
2017-01-28T00:45:42.325Z,0
2017-01-28T00:46:43.003Z,0
2017-01-28T00:47:43.700Z,0
2017-01-28T00:48:44.371Z,0
2017-01-28T00:49:45.063Z,0
2017-01-28T00:50:45.749Z,0
2017-01-28T00:51:46.434Z,0
2017-01-28T00:52:47.111Z,0
2017-01-28T00:53:47.787Z,0
2017-01-28T00:54:48.465Z,0
2017-01-28T00:55:49.125Z,0
2017-01-28T00:56:49.809Z,0
2017-01-28T00:57:50.500Z,0
2017-01-28T00:58:51.177Z,0
2017-01-28T00:59:51.855Z,0
2017-01-28T01:00:52.519Z,0
2017-01-28T01:01:53.188Z,0
2017-01-28T01:02:53.871Z,0
2017-01-28T01:03:54.546Z,0
2017-01-28T01:04:55.217Z,0
2017-01-28T01:05:55.887Z,0
2017-01-28T01:06:56.555Z,0
2017-01-28T01:07:57.224Z,0
2017-01-28T01:08:57.899Z,0
2017-01-28T01:09:58.572Z,0
2017-01-28T01:10:59.246Z,0
2017-01-28T01:11:59.917Z,0
2017-01-28T01:13:00.577Z,0
2017-01-28T01:14:01.242Z,0
2017-01-28T01:15:01.932Z,0
2017-01-28T01:16:02.610Z,0
2017-01-28T01:17:03.329Z,0
2017-01-28T01:18:04.016Z,0
2017-01-28T01:19:04.697Z,0
2017-01-28T01:20:05.386Z,0
2017-01-28T01:21:06.078Z,0
2017-01-28T01:22:06.751Z,0
2017-01-28T01:23:07.426Z,0
2017-01-28T01:24:08.096Z,0
2017-01-28T01:25:08.793Z,0
2017-01-28T01:26:09.469Z,0
2017-01-28T01:27:10.145Z,0
2017-01-28T01:28:10.814Z,0
2017-01-28T01:29:11.512Z,0
2017-01-28T01:30:12.188Z,0
2017-01-28T01:31:12.869Z,0
2017-01-28T01:32:13.560Z,0
2017-01-28T01:33:14.225Z,0
2017-01-28T01:34:14.900Z,0
2017-01-28T01:35:15.574Z,0
2017-01-28T01:36:16.269Z,0
2017-01-28T01:37:16.946Z,0
2017-01-28T01:38:17.614Z,0
2017-01-28T01:39:18.291Z,0
2017-01-28T01:40:18.991Z,0
2017-01-28T01:41:19.681Z,0
2017-01-28T01:42:20.322Z,0
2017-01-28T01:43:21.016Z,0
2017-01-28T01:44:21.684Z,0
2017-01-28T01:45:22.372Z,0
2017-01-28T01:46:23.204Z,0
2017-01-28T01:47:23.867Z,0
2017-01-28T01:48:24.557Z,0
2017-01-28T01:49:25.240Z,0
2017-01-28T01:50:25.911Z,0
2017-01-28T01:51:26.609Z,0
2017-01-28T01:52:27.277Z,0
2017-01-28T01:53:27.957Z,0
2017-01-28T01:54:28.621Z,0
2017-01-28T01:55:29.351Z,0
2017-01-28T01:56:30.032Z,0
2017-01-28T01:57:30.706Z,0
2017-01-28T01:58:31.387Z,0
2017-01-28T01:59:32.068Z,0
2017-01-28T02:00:32.752Z,0
2017-01-28T02:01:33.450Z,0
2017-01-28T02:02:34.127Z,0
2017-01-28T02:03:34.805Z,0
2017-01-28T02:04:35.509Z,0
2017-01-28T02:05:36.188Z,0
2017-01-28T02:06:36.856Z,0
2017-01-28T02:07:37.525Z,0
2017-01-28T02:08:38.218Z,0
2017-01-28T02:09:38.892Z,0
2017-01-28T02:10:39.564Z,0
2017-01-28T02:11:40.236Z,0
2017-01-28T02:12:40.942Z,0
2017-01-28T02:13:41.606Z,0
2017-01-28T02:14:42.338Z,0
2017-01-28T02:15:43.007Z,0
2017-01-28T02:16:43.678Z,0
2017-01-28T02:17:44.357Z,0
2017-01-28T02:18:45.028Z,0
2017-01-28T02:19:45.696Z,0
2017-01-28T02:20:46.371Z,0
2017-01-28T02:21:47.036Z,0
2017-01-28T02:22:47.726Z,0
2017-01-28T02:23:48.394Z,0
2017-01-28T02:24:49.059Z,0
2017-01-28T02:25:49.725Z,0
2017-01-28T02:26:50.460Z,0
2017-01-28T02:27:51.131Z,0
2017-01-28T02:28:51.806Z,0
2017-01-28T02:29:52.480Z,0
2017-01-28T02:30:53.158Z,0
2017-01-28T02:31:53.839Z,0
2017-01-28T02:32:54.520Z,0
2017-01-28T02:33:55.250Z,0
2017-01-28T02:34:55.910Z,0
2017-01-28T02:35:56.580Z,0
2017-01-28T02:36:57.269Z,0
2017-01-28T02:37:57.948Z,0
2017-01-28T02:38:58.637Z,0
2017-01-28T02:39:59.314Z,0
2017-01-28T02:41:00.000Z,0
2017-01-28T02:42:00.657Z,0
2017-01-28T02:43:01.331Z,0
2017-01-28T02:44:02.019Z,0
2017-01-28T02:45:02.743Z,0
2017-01-28T02:46:03.422Z,0
2017-01-28T02:47:04.081Z,0
2017-01-28T02:48:04.765Z,0
2017-01-28T02:49:05.466Z,0
2017-01-28T02:50:06.145Z,0
2017-01-28T02:51:06.827Z,0
2017-01-28T02:52:07.481Z,0
2017-01-28T02:53:08.164Z,0
2017-01-28T02:54:08.848Z,0
2017-01-28T02:55:09.584Z,0
2017-01-28T02:56:10.199Z,0
2017-01-28T02:57:10.884Z,0
2017-01-28T02:58:11.579Z,0
2017-01-28T02:59:12.250Z,0
2017-01-28T03:00:12.942Z,0
2017-01-28T03:01:13.625Z,0
2017-01-28T03:02:14.303Z,0
2017-01-28T03:03:15.023Z,0
2017-01-28T03:04:15.688Z,0
2017-01-28T03:05:16.358Z,0
2017-01-28T03:06:17.049Z,0
2017-01-28T03:07:17.736Z,0
2017-01-28T03:08:18.412Z,0
2017-01-28T03:09:19.088Z,0
2017-01-28T03:10:19.748Z,0
2017-01-28T03:11:20.427Z,0
2017-01-28T03:12:21.103Z,0
2017-01-28T03:13:21.791Z,0
2017-01-28T03:14:22.459Z,0
2017-01-28T03:15:23.154Z,0
2017-01-28T03:16:23.836Z,0
2017-01-28T03:17:24.503Z,0
2017-01-28T03:18:25.179Z,0
2017-01-28T03:19:25.850Z,0
2017-01-28T03:20:26.533Z,0
2017-01-28T03:21:27.205Z,0
2017-01-28T03:22:27.878Z,0
2017-01-28T03:23:28.539Z,0
2017-01-28T03:24:29.224Z,0
2017-01-28T03:25:29.901Z,0
2017-01-28T03:26:30.575Z,0
2017-01-28T03:27:31.273Z,0
2017-01-28T03:28:31.928Z,0
2017-01-28T03:29:32.596Z,0
2017-01-28T03:30:33.259Z,0
2017-01-28T03:31:33.934Z,0
2017-01-28T03:32:34.618Z,0
2017-01-28T03:33:35.293Z,0
2017-01-28T03:34:35.994Z,0
2017-01-28T03:35:36.664Z,0
2017-01-28T03:36:37.341Z,0
2017-01-28T03:37:38.013Z,0
2017-01-28T03:38:38.682Z,0
2017-01-28T03:39:39.350Z,0
2017-01-28T03:40:40.016Z,0
2017-01-28T03:41:40.695Z,0
2017-01-28T03:42:41.359Z,0
2017-01-28T03:43:42.046Z,0
2017-01-28T03:44:42.706Z,0
2017-01-28T03:45:43.380Z,0
2017-01-28T03:46:44.058Z,0
2017-01-28T03:47:44.719Z,0
2017-01-28T03:48:45.389Z,0
2017-01-28T03:49:46.069Z,0
2017-01-28T03:50:46.731Z,0
2017-01-28T03:51:47.400Z,0
2017-01-28T03:52:48.083Z,0
2017-01-28T03:53:48.748Z,0
2017-01-28T03:54:49.422Z,0
2017-01-28T03:55:50.087Z,0
2017-01-28T03:56:50.772Z,0
2017-01-28T03:57:51.462Z,0
2017-01-28T03:58:52.133Z,0
2017-01-28T03:59:52.818Z,0
2017-01-28T04:00:53.499Z,0
2017-01-28T04:01:54.208Z,0
2017-01-28T04:02:54.930Z,0
2017-01-28T04:03:55.626Z,0
2017-01-28T04:04:56.300Z,0
2017-01-28T04:05:57.020Z,0
2017-01-28T04:06:57.701Z,0
2017-01-28T04:07:58.366Z,0
2017-01-28T04:08:59.065Z,0
2017-01-28T04:09:59.787Z,0
2017-01-28T04:11:00.463Z,0
2017-01-28T04:12:01.145Z,0
2017-01-28T04:13:01.834Z,0
2017-01-28T04:14:02.502Z,0
2017-01-28T04:15:03.187Z,0
2017-01-28T04:16:03.884Z,0
2017-01-28T04:17:04.547Z,0
2017-01-28T04:18:05.251Z,0
2017-01-28T04:19:05.946Z,0
2017-01-28T04:20:06.616Z,0
2017-01-28T04:21:07.292Z,0
2017-01-28T04:22:07.963Z,0
2017-01-28T04:23:08.637Z,0
2017-01-28T04:24:09.308Z,0
2017-01-28T04:25:09.985Z,0
2017-01-28T04:26:10.655Z,0
2017-01-28T04:27:11.325Z,0
2017-01-28T04:28:12.003Z,0
2017-01-28T04:29:12.671Z,0
2017-01-28T04:30:13.351Z,0
2017-01-28T04:31:14.084Z,0
2017-01-28T04:32:14.757Z,0
2017-01-28T04:33:15.466Z,0
2017-01-28T04:34:16.137Z,0
2017-01-28T04:35:16.805Z,0
2017-01-28T04:36:17.482Z,0
2017-01-28T04:37:18.153Z,0
2017-01-28T04:38:18.839Z,0
2017-01-28T04:39:19.528Z,0
2017-01-28T04:40:20.211Z,0
2017-01-28T04:41:20.893Z,0
2017-01-28T04:42:21.551Z,0
2017-01-28T04:43:22.264Z,0
2017-01-28T04:44:22.951Z,0
2017-01-28T04:45:23.641Z,0
2017-01-28T04:46:24.323Z,0
2017-01-28T04:47:24.992Z,0
2017-01-28T04:48:25.676Z,0
2017-01-28T04:49:26.351Z,0
2017-01-28T04:50:27.031Z,0
2017-01-28T04:51:27.719Z,0
2017-01-28T04:52:28.397Z,0
2017-01-28T04:53:29.066Z,0
2017-01-28T04:54:29.729Z,0
2017-01-28T04:55:30.408Z,0
2017-01-28T04:56:31.076Z,0
2017-01-28T04:57:31.753Z,0
2017-01-28T04:58:32.436Z,0
2017-01-28T04:59:33.115Z,0
2017-01-28T05:00:33.797Z,0
2017-01-28T05:01:34.477Z,0
2017-01-28T05:02:35.153Z,0
2017-01-28T05:03:35.829Z,0
2017-01-28T05:04:36.506Z,0
2017-01-28T05:05:37.181Z,0
2017-01-28T05:06:37.846Z,0
2017-01-28T05:07:38.507Z,0
2017-01-28T05:08:39.180Z,0
2017-01-28T05:09:39.850Z,0
2017-01-28T05:10:40.517Z,0
2017-01-28T05:11:41.205Z,0
2017-01-28T05:12:41.880Z,0
2017-01-28T05:13:42.546Z,0
2017-01-28T05:14:43.221Z,0
2017-01-28T05:15:43.894Z,0
2017-01-28T05:16:44.553Z,0
2017-01-28T05:17:45.245Z,0
2017-01-28T05:18:45.914Z,0
2017-01-28T05:19:46.635Z,0
2017-01-28T05:20:47.337Z,0
2017-01-28T05:21:48.005Z,0
2017-01-28T05:22:48.676Z,0
2017-01-28T05:23:49.346Z,0
2017-01-28T05:24:50.027Z,0
2017-01-28T05:25:50.715Z,0
2017-01-28T05:26:51.380Z,0
2017-01-28T05:27:52.041Z,0
2017-01-28T05:28:52.721Z,0
2017-01-28T05:29:53.394Z,0
2017-01-28T05:30:54.071Z,0
2017-01-28T05:31:54.785Z,0
2017-01-28T05:32:55.461Z,0
2017-01-28T05:33:56.132Z,0
2017-01-28T05:34:56.805Z,0
2017-01-28T05:35:57.473Z,0
2017-01-28T05:36:58.152Z,0
2017-01-28T05:37:58.852Z,0
2017-01-28T05:38:59.546Z,0
2017-01-28T05:40:00.223Z,0
2017-01-28T05:41:00.886Z,0
2017-01-28T05:42:01.584Z,0
2017-01-28T05:43:02.235Z,0
2017-01-28T05:44:02.923Z,0
2017-01-28T05:45:03.605Z,0
2017-01-28T05:46:04.268Z,0
2017-01-28T05:47:04.950Z,0
2017-01-28T05:48:05.615Z,0
2017-01-28T05:49:06.288Z,0
2017-01-28T05:50:06.995Z,0
2017-01-28T05:51:07.668Z,0
2017-01-28T05:52:08.350Z,0
2017-01-28T05:53:09.058Z,0
2017-01-28T05:54:09.756Z,0
2017-01-28T05:55:10.410Z,0
2017-01-28T05:56:11.091Z,0
2017-01-28T05:57:11.780Z,0
2017-01-28T05:58:12.460Z,0
2017-01-28T05:59:13.138Z,0
2017-01-28T06:00:13.820Z,0
2017-01-28T06:01:14.484Z,0
2017-01-28T06:02:15.163Z,0
2017-01-28T06:03:15.837Z,0
2017-01-28T06:04:16.509Z,0
2017-01-28T06:05:17.197Z,0
2017-01-28T06:06:17.862Z,0
2017-01-28T06:07:18.563Z,0
2017-01-28T06:08:19.233Z,0
2017-01-28T06:09:19.896Z,0
2017-01-28T06:10:20.571Z,0
2017-01-28T06:11:21.239Z,0
2017-01-28T06:12:22.102Z,0
2017-01-28T06:13:22.773Z,0
2017-01-28T06:14:23.463Z,0
2017-01-28T06:15:24.132Z,0
2017-01-28T06:16:24.794Z,0
2017-01-28T06:17:25.479Z,0
2017-01-28T06:18:26.147Z,0
2017-01-28T06:19:26.834Z,0
2017-01-28T06:20:27.496Z,0
2017-01-28T06:21:28.168Z,0
2017-01-28T06:22:28.859Z,0
2017-01-28T06:23:29.542Z,0
2017-01-28T06:24:30.197Z,0
2017-01-28T06:25:30.866Z,0
2017-01-28T06:26:31.534Z,0
2017-01-28T06:27:32.216Z,0
2017-01-28T06:28:32.906Z,0
2017-01-28T06:29:33.552Z,0
2017-01-28T06:30:34.241Z,0
2017-01-28T06:31:34.907Z,4
2017-01-28T06:32:35.580Z,0
2017-01-28T06:33:36.281Z,0
2017-01-28T06:34:36.955Z,4
2017-01-28T06:35:37.642Z,0
2017-01-28T06:36:38.304Z,4
2017-01-28T06:37:38.971Z,4
2017-01-28T06:38:39.637Z,4
2017-01-28T06:39:40.316Z,8
2017-01-28T06:40:40.986Z,4
2017-01-28T06:41:41.665Z,8
2017-01-28T06:42:42.340Z,8
2017-01-28T06:43:43.026Z,12
2017-01-28T06:44:43.699Z,12
2017-01-28T06:45:44.398Z,16
2017-01-28T06:46:45.072Z,16
2017-01-28T06:47:45.749Z,20
2017-01-28T06:48:46.417Z,24
2017-01-28T06:49:47.097Z,32
2017-01-28T06:50:47.754Z,32
2017-01-28T06:51:48.444Z,36
2017-01-28T06:52:49.113Z,44
2017-01-28T06:53:49.801Z,52
2017-01-28T06:54:50.495Z,60
2017-01-28T06:55:51.170Z,68
2017-01-28T06:56:51.843Z,76
2017-01-28T06:57:52.515Z,92
2017-01-28T06:58:53.187Z,100
2017-01-28T06:59:53.874Z,112
2017-01-28T07:00:54.562Z,128
2017-01-28T07:01:55.228Z,140
2017-01-28T07:02:55.898Z,156
2017-01-28T07:03:56.563Z,172
2017-01-28T07:04:57.244Z,188
2017-01-28T07:05:57.912Z,204
2017-01-28T07:06:58.583Z,224
2017-01-28T07:07:59.260Z,244
2017-01-28T07:08:59.932Z,260
2017-01-28T07:10:00.604Z,284
2017-01-28T07:11:01.279Z,308
2017-01-28T07:12:01.947Z,332
2017-01-28T07:13:02.624Z,356
2017-01-28T07:14:03.291Z,384
2017-01-28T07:15:03.963Z,412
2017-01-28T07:16:04.644Z,444
2017-01-28T07:17:05.349Z,472
2017-01-28T07:18:06.121Z,504
2017-01-28T07:19:06.814Z,532
2017-01-28T07:20:07.534Z,564
2017-01-28T07:21:08.232Z,600
2017-01-28T07:22:08.905Z,632
2017-01-28T07:23:09.584Z,672
2017-01-28T07:24:10.264Z,708
2017-01-28T07:25:10.957Z,748
2017-01-28T07:26:11.622Z,784
2017-01-28T07:27:12.307Z,820
2017-01-28T07:28:12.983Z,856
2017-01-28T07:29:13.654Z,888
2017-01-28T07:30:14.339Z,920
2017-01-28T07:31:15.022Z,952
2017-01-28T07:32:15.711Z,976
2017-01-28T07:33:16.386Z,1012
2017-01-28T07:34:17.076Z,1060
2017-01-28T07:35:17.779Z,1112
2017-01-28T07:36:18.455Z,1160
2017-01-28T07:37:19.124Z,1200
2017-01-28T07:38:19.788Z,1252
2017-01-28T07:39:20.471Z,1308
2017-01-28T07:40:21.151Z,1360
2017-01-28T07:41:21.826Z,1404
2017-01-28T07:42:22.491Z,1436
2017-01-28T07:43:23.153Z,1472
2017-01-28T07:44:23.872Z,1504
2017-01-28T07:45:24.552Z,1536
2017-01-28T07:46:25.234Z,1576
2017-01-28T07:47:25.909Z,1616
2017-01-28T07:48:26.976Z,1652
2017-01-28T07:49:27.671Z,1688
2017-01-28T07:50:28.343Z,1724
2017-01-28T07:51:29.019Z,1760
2017-01-28T07:52:29.686Z,1788
2017-01-28T07:53:30.388Z,1812
2017-01-28T07:54:31.067Z,1852
2017-01-28T07:55:31.741Z,1892
2017-01-28T07:56:32.410Z,1944
2017-01-28T07:57:33.091Z,2004
2017-01-28T07:58:33.781Z,2052
2017-01-28T07:59:34.483Z,2100
2017-01-28T08:00:35.166Z,2176
2017-01-28T08:01:35.848Z,2236
2017-01-28T08:02:36.518Z,2280
2017-01-28T08:03:37.204Z,2316
2017-01-28T08:04:37.895Z,2368
2017-01-28T08:05:38.577Z,2432
2017-01-28T08:06:39.252Z,2472
2017-01-28T08:07:39.953Z,2496
2017-01-28T08:08:40.649Z,2508
2017-01-28T08:09:41.310Z,2516
2017-01-28T08:10:41.984Z,2564
2017-01-28T08:11:42.663Z,2616
2017-01-28T08:12:43.332Z,2632
2017-01-28T08:13:44.016Z,2656
2017-01-28T08:14:44.763Z,2712
2017-01-28T08:15:45.436Z,2732
2017-01-28T08:16:46.147Z,2756
2017-01-28T08:17:46.820Z,2808
2017-01-28T08:18:47.550Z,2864
2017-01-28T08:19:48.217Z,2884
2017-01-28T08:20:48.908Z,2908
2017-01-28T08:21:49.585Z,3012
2017-01-28T08:22:50.254Z,3160
2017-01-28T08:23:50.927Z,3324
2017-01-28T08:24:51.598Z,3236
2017-01-28T08:25:52.330Z,3196
2017-01-28T08:26:53.024Z,3376
2017-01-28T08:27:53.712Z,3424
2017-01-28T08:28:54.413Z,3312
2017-01-28T08:29:55.092Z,3416
2017-01-28T08:30:55.775Z,3852
2017-01-28T08:31:56.562Z,3888
2017-01-28T08:32:57.245Z,3680
2017-01-28T08:33:57.935Z,3812
2017-01-28T08:34:58.624Z,3844
2017-01-28T08:35:59.296Z,3604
2017-01-28T08:36:59.987Z,3536
2017-01-28T08:38:00.713Z,3684
2017-01-28T08:39:01.661Z,3728
2017-01-28T08:40:02.342Z,3724
2017-01-28T08:41:03.094Z,3620
2017-01-28T08:42:03.766Z,3900
2017-01-28T08:43:04.492Z,4408
2017-01-28T08:44:05.161Z,4736
2017-01-28T08:45:05.826Z,4484
2017-01-28T08:46:06.513Z,4048
2017-01-28T08:47:07.181Z,4252
2017-01-28T08:48:07.866Z,4576
2017-01-28T08:49:08.614Z,4932
2017-01-28T08:50:09.291Z,5056
2017-01-28T08:51:09.962Z,4812
2017-01-28T08:52:10.645Z,5140
2017-01-28T08:53:11.331Z,5460
2017-01-28T08:54:12.011Z,5648
2017-01-28T08:55:12.697Z,5972
2017-01-28T08:56:13.375Z,6356
2017-01-28T08:57:14.072Z,6324
2017-01-28T08:58:14.826Z,6332
2017-01-28T08:59:15.502Z,6688
2017-01-28T09:00:16.190Z,6860
2017-01-28T09:01:16.868Z,6684
2017-01-28T09:02:17.559Z,6608
2017-01-28T09:03:18.226Z,6900
2017-01-28T09:04:18.889Z,7088
2017-01-28T09:05:19.582Z,6812
2017-01-28T09:06:20.277Z,6644
2017-01-28T09:07:20.970Z,5320
2017-01-28T09:08:21.669Z,3868
2017-01-28T09:09:22.341Z,3728
2017-01-28T09:10:23.009Z,3708
2017-01-28T09:11:23.686Z,3680
2017-01-28T09:12:24.369Z,3724
2017-01-28T09:13:25.076Z,3692
2017-01-28T09:14:25.767Z,3684
2017-01-28T09:15:26.808Z,3696
2017-01-28T09:16:27.487Z,3712
2017-01-28T09:17:28.177Z,3728
2017-01-28T09:18:28.900Z,3732
2017-01-28T09:19:29.559Z,3744
2017-01-28T09:20:30.234Z,3752
2017-01-28T09:21:30.956Z,3772
2017-01-28T09:22:31.643Z,3760
2017-01-28T09:23:32.415Z,3728
2017-01-28T09:24:33.104Z,3744
2017-01-28T09:25:33.812Z,3724
2017-01-28T09:26:34.979Z,3728
2017-01-28T09:27:35.662Z,3732
2017-01-28T09:28:36.334Z,3720
2017-01-28T09:29:37.009Z,3768
2017-01-28T09:30:37.765Z,3796
2017-01-28T09:31:38.465Z,3832
2017-01-28T09:32:39.143Z,3872
2017-01-28T09:33:39.835Z,3912
2017-01-28T09:34:40.525Z,3912
2017-01-28T09:35:41.178Z,3932
2017-01-28T09:36:41.880Z,3952
2017-01-28T09:37:42.598Z,3960
2017-01-28T09:38:43.274Z,3964
2017-01-28T09:39:43.946Z,3944
2017-01-28T09:40:44.623Z,3904
2017-01-28T09:41:45.308Z,3904
2017-01-28T09:42:45.979Z,3908
2017-01-28T09:43:46.692Z,3876
2017-01-28T09:44:47.371Z,3812
2017-01-28T09:45:48.039Z,3796
2017-01-28T09:46:48.735Z,3836
2017-01-28T09:47:49.419Z,3844
2017-01-28T09:48:50.095Z,3836
2017-01-28T09:49:50.790Z,3852
2017-01-28T09:50:51.480Z,3848
2017-01-28T09:51:52.152Z,3876
2017-01-28T09:52:52.833Z,3860
2017-01-28T09:53:53.504Z,3880
2017-01-28T09:54:54.211Z,3856
2017-01-28T09:55:54.876Z,3856
2017-01-28T09:56:55.553Z,3848
2017-01-28T09:57:56.226Z,3900
2017-01-28T09:58:56.932Z,3892
2017-01-28T09:59:57.605Z,3880
2017-01-28T10:00:58.289Z,3876
2017-01-28T10:01:58.990Z,3892
2017-01-28T10:02:59.718Z,3892
2017-01-28T10:04:00.394Z,3904
2017-01-28T10:05:01.063Z,3892
2017-01-28T10:06:01.740Z,3900
2017-01-28T10:07:02.402Z,3876
2017-01-28T10:09:18.524Z,3896
2017-01-28T10:10:19.183Z,3876
2017-01-28T10:11:19.847Z,3908
2017-01-28T10:12:20.506Z,3908
2017-01-28T10:13:21.202Z,3904
2017-01-28T10:14:21.869Z,3924
2017-01-28T10:15:22.522Z,3928
2017-01-28T10:16:23.192Z,3932
2017-01-28T10:17:23.852Z,3932
2017-01-28T10:18:24.549Z,3928
2017-01-28T10:19:25.210Z,3916
2017-01-28T10:20:25.891Z,3908
2017-01-28T10:21:26.554Z,3944
2017-01-28T10:22:27.233Z,3924
2017-01-28T10:23:27.950Z,3932
2017-01-28T10:24:28.625Z,3996
2017-01-28T10:25:29.304Z,4052
2017-01-28T10:26:29.969Z,4048
2017-01-28T10:27:30.631Z,4052
2017-01-28T10:28:31.348Z,4020
2017-01-28T10:29:32.018Z,3984
2017-01-28T10:30:32.691Z,3972
2017-01-28T10:31:33.469Z,3984
2017-01-28T10:32:34.152Z,3968
2017-01-28T10:33:34.839Z,3956
2017-01-28T10:34:35.512Z,3960
2017-01-28T10:35:36.178Z,3948
2017-01-28T10:36:36.875Z,3948
2017-01-28T10:37:37.606Z,3952
2017-01-28T10:38:38.296Z,3952
2017-01-28T10:39:38.973Z,3948
2017-01-28T10:40:39.639Z,3944
2017-01-28T10:41:40.527Z,3948
2017-01-28T10:42:41.461Z,3968
2017-01-28T10:43:42.339Z,3988
2017-01-28T10:44:42.983Z,3996
2017-01-28T10:45:43.796Z,4004
2017-01-28T10:46:44.599Z,3996
2017-01-28T10:47:45.255Z,4032
2017-01-28T10:48:46.169Z,4048
2017-01-28T10:49:46.807Z,4060
2017-01-28T10:50:47.622Z,4068
2017-01-28T10:51:48.332Z,4076
2017-01-28T10:52:49.159Z,4052
2017-01-28T10:53:50.261Z,4060
2017-01-28T10:54:51.090Z,4068
2017-01-28T10:55:52.024Z,4104
2017-01-28T10:56:52.858Z,4120
2017-01-28T10:57:53.771Z,4112
2017-01-28T10:58:54.541Z,4096
2017-01-28T10:59:55.409Z,4028
2017-01-28T11:00:56.528Z,3744
2017-01-28T11:01:57.706Z,3524
2017-01-28T11:02:58.689Z,3544
2017-01-28T11:03:59.574Z,3716
2017-01-28T11:05:00.343Z,3740
2017-01-28T11:06:01.235Z,3600
2017-01-28T11:07:01.791Z,3408
2017-01-28T11:08:02.815Z,3476
2017-01-28T11:09:04.380Z,3688
2017-01-28T11:10:04.987Z,3832
2017-01-28T11:11:06.081Z,3928
2017-01-28T11:12:06.807Z,4012
2017-01-28T11:13:07.604Z,3976
2017-01-28T11:14:08.414Z,3916
2017-01-28T11:15:09.258Z,4012
2017-01-28T11:16:10.220Z,4068
2017-01-28T11:17:11.166Z,4060
2017-01-28T11:18:11.948Z,4084
2017-01-28T11:19:13.471Z,3976
2017-01-28T11:20:14.238Z,3880
2017-01-28T11:21:15.113Z,3928
2017-01-28T11:22:16.348Z,3948
2017-01-28T11:23:17.417Z,4080
2017-01-28T11:24:18.392Z,4208
2017-01-28T11:25:19.200Z,4224
2017-01-28T11:26:20.271Z,4236
2017-01-28T11:27:21.329Z,4248
2017-01-28T11:28:22.206Z,4248
2017-01-28T11:29:23.298Z,4248
2017-01-28T11:30:24.016Z,4260
2017-01-28T11:31:24.877Z,4280
2017-01-28T11:32:25.490Z,4280
2017-01-28T11:33:26.220Z,4280
2017-01-28T11:34:27.362Z,4300
2017-01-28T11:35:28.685Z,4320
2017-01-28T11:36:29.447Z,4324
2017-01-28T11:37:30.141Z,4360
2017-01-28T11:38:31.091Z,4388
2017-01-28T11:39:32.427Z,4392
2017-01-28T11:40:33.197Z,4396
2017-01-28T11:41:34.485Z,4388
2017-01-28T11:42:35.033Z,4380
2017-01-28T11:43:35.722Z,4300
2017-01-28T11:44:36.708Z,4252
2017-01-28T11:45:37.333Z,4220
2017-01-28T11:46:38.151Z,4076
2017-01-28T11:47:38.964Z,4108
2017-01-28T11:48:39.802Z,4124
2017-01-28T11:49:40.800Z,4096
2017-01-28T11:50:41.399Z,4080
2017-01-28T11:51:42.150Z,4076
2017-01-28T11:52:43.187Z,4020
2017-01-28T11:53:43.812Z,4004
2017-01-28T11:54:44.608Z,4008
2017-01-28T11:55:45.386Z,3996
2017-01-28T11:56:46.224Z,3988
2017-01-28T11:57:47.288Z,3960
2017-01-28T11:58:48.085Z,3936
2017-01-28T11:59:49.478Z,3932
2017-01-28T12:00:50.081Z,3924
2017-01-28T12:01:50.786Z,3912
2017-01-28T12:02:51.768Z,3904
2017-01-28T12:03:52.432Z,3884
2017-01-28T12:04:53.159Z,3908
2017-01-28T12:05:53.819Z,3916
2017-01-28T12:06:54.740Z,3868
2017-01-28T12:07:55.811Z,3816
2017-01-28T12:08:56.494Z,3852
2017-01-28T12:09:57.484Z,3876
2017-01-28T12:10:58.711Z,3724
2017-01-28T12:11:59.540Z,3804
2017-01-28T12:13:00.693Z,3848
2017-01-28T12:14:01.314Z,3756
2017-01-28T12:15:02.100Z,3680
2017-01-28T12:16:02.767Z,3780
2017-01-28T12:17:03.451Z,3804
2017-01-28T12:18:04.116Z,3836
2017-01-28T12:19:04.991Z,3812
2017-01-28T12:20:05.819Z,3776
2017-01-28T12:21:06.445Z,3764
2017-01-28T12:22:07.339Z,3752
2017-01-28T12:23:08.057Z,3728
2017-01-28T12:24:08.728Z,3708
2017-01-28T12:25:09.408Z,3648
2017-01-28T12:26:10.120Z,3636
2017-01-28T12:27:10.871Z,3592
2017-01-28T12:28:11.627Z,3504
2017-01-28T12:29:12.510Z,3476
2017-01-28T12:30:13.058Z,3492
2017-01-28T12:31:13.762Z,3452
2017-01-28T12:32:14.498Z,3492
2017-01-28T12:33:15.197Z,3472
2017-01-28T12:34:15.958Z,3512
2017-01-28T12:35:16.683Z,3516
2017-01-28T12:36:17.325Z,3528
2017-01-28T12:37:18.158Z,3524
2017-01-28T12:38:18.949Z,3516
2017-01-28T12:39:19.653Z,3528
2017-01-28T12:40:20.312Z,3532
2017-01-28T12:41:21.112Z,3508
2017-01-28T12:42:21.824Z,3484
2017-01-28T12:43:22.596Z,3484
2017-01-28T12:44:23.534Z,3480
2017-01-28T12:45:24.247Z,3476
2017-01-28T12:46:24.931Z,3452
2017-01-28T12:47:25.632Z,3436
2017-01-28T12:48:26.344Z,3432
2017-01-28T12:49:27.021Z,3400
2017-01-28T12:50:27.740Z,3428
2017-01-28T12:51:28.419Z,3436
2017-01-28T12:52:29.178Z,3444
2017-01-28T12:53:29.901Z,3440
2017-01-28T12:54:30.573Z,3436
2017-01-28T12:55:31.271Z,3424
2017-01-28T12:56:31.965Z,3416
2017-01-28T12:57:32.668Z,3412
2017-01-28T12:58:33.492Z,3428
2017-01-28T12:59:34.204Z,3416
2017-01-28T13:00:34.896Z,3408
2017-01-28T13:01:35.614Z,3408
2017-01-28T13:02:36.401Z,3380
2017-01-28T13:03:37.008Z,3368
2017-01-28T13:04:37.736Z,3368
2017-01-28T13:05:38.455Z,3348
2017-01-28T13:06:39.162Z,3320
2017-01-28T13:07:39.916Z,3276
2017-01-28T13:08:40.642Z,3248
2017-01-28T13:09:41.502Z,3236
2017-01-28T13:10:42.123Z,3256
2017-01-28T13:11:42.802Z,3224
2017-01-28T13:12:43.522Z,3196
2017-01-28T13:13:44.259Z,3172
2017-01-28T13:14:45.313Z,3176
2017-01-28T13:15:46.045Z,3188
2017-01-28T13:16:47.044Z,3172
2017-01-28T13:17:47.570Z,3164
2017-01-28T13:18:48.642Z,3172
2017-01-28T13:19:49.634Z,3168
2017-01-28T13:20:50.750Z,3144
2017-01-28T13:21:51.319Z,3108
2017-01-28T13:22:52.068Z,3096
2017-01-28T13:23:53.629Z,3084
2017-01-28T13:24:54.760Z,3048
2017-01-28T13:25:55.489Z,3040
2017-01-28T13:26:56.195Z,3024
2017-01-28T13:27:56.911Z,2976
2017-01-28T13:28:57.648Z,2980
2017-01-28T13:29:58.422Z,3012
2017-01-28T13:30:59.167Z,3020
2017-01-28T13:32:00.028Z,3016
2017-01-28T13:33:00.641Z,3012
2017-01-28T13:34:01.396Z,3012
2017-01-28T13:35:02.214Z,3016
2017-01-28T13:36:02.905Z,3004
2017-01-28T13:37:03.645Z,2996
2017-01-28T13:38:04.341Z,2984
2017-01-28T13:39:05.168Z,2980
2017-01-28T13:40:05.925Z,2992
2017-01-28T13:41:06.610Z,2980
2017-01-28T13:42:07.290Z,2928
2017-01-28T13:43:07.958Z,2920
2017-01-28T13:44:08.639Z,2952
2017-01-28T13:45:09.304Z,2972
2017-01-28T13:46:09.975Z,2956
2017-01-28T13:47:10.651Z,2960
2017-01-28T13:48:11.307Z,2952
2017-01-28T13:49:12.007Z,2920
2017-01-28T13:50:12.677Z,2892
2017-01-28T13:51:13.352Z,2900
2017-01-28T13:52:14.028Z,2892
2017-01-28T13:53:14.690Z,2856
2017-01-28T13:54:15.402Z,2840
2017-01-28T13:55:16.137Z,2824
2017-01-28T13:56:16.794Z,2808
2017-01-28T13:57:17.480Z,2800
2017-01-28T13:58:18.153Z,2792
2017-01-28T13:59:18.852Z,2772
2017-01-28T14:00:19.518Z,2752
2017-01-28T14:01:20.243Z,2736
2017-01-28T14:02:20.933Z,2716
2017-01-28T14:03:21.613Z,2672
2017-01-28T14:04:22.289Z,2608
2017-01-28T14:05:22.959Z,2552
2017-01-28T14:06:23.637Z,2536
2017-01-28T14:07:24.305Z,2536
2017-01-28T14:08:24.982Z,2544
2017-01-28T14:09:25.649Z,2556
2017-01-28T14:10:26.341Z,2492
2017-01-28T14:11:27.014Z,2400